AVA010 SKBO-PHNL
Flight info
| Callsign | AVA010 |
|---|---|
| Flight time | N/A |
| Altitude | 36000 |
| Route | TOBKI1S VASIL UL423 ISEBA UG440 LIB UL200 DORLA DCT ANREX/N0495F380 DCT YEDRA DCT 15N105W 16N110W 18N120W/N0488F400 20N130W 21N140W 21N150W DCT FAPIS R578 DEREC V21 LNY JULLE5 |
| Aircraft | B788/H-SDE1E2E3FGHIJ2J3J4J5M1RWXY/LB1D1 |
Departure
| Time | 2026-05-05 06:24 |
|---|---|
| Airport | El Dorado International Airport (SKBO) |
Arrival
| Time | N/A |
|---|---|
| Airport | Daniel K. Inouye International Airport (PHNL) |
| Time | Latitude | Longitude | Altitude | Speed | Heading |
|---|---|---|---|---|---|
| 2026-05-05 05:17 | 4.69680 | -74.13707 | 8372 ft | 0 kts | 242° |
| 2026-05-05 06:04 | 4.69688 | -74.13691 | 8372 ft | 4 kts | 242° |
| 2026-05-05 06:04 | 4.69700 | -74.13667 | 8372 ft | 4 kts | 242° |
| 2026-05-05 06:04 | 4.69711 | -74.13647 | 8372 ft | 4 kts | 244° |
| 2026-05-05 06:05 | 4.69718 | -74.13624 | 8372 ft | 3 kts | 273° |
| 2026-05-05 06:05 | 4.69708 | -74.13600 | 8372 ft | 4 kts | 320° |
| 2026-05-05 06:05 | 4.69687 | -74.13583 | 8372 ft | 3 kts | 310° |
| 2026-05-05 06:05 | 4.69684 | -74.13580 | 8372 ft | 0 kts | 306° |
| 2026-05-05 06:14 | 4.69683 | -74.13579 | 8371 ft | 1 kts | 306° |
| 2026-05-05 06:14 | 4.69706 | -74.13610 | 8371 ft | 8 kts | 306° |
| 2026-05-05 06:14 | 4.69745 | -74.13629 | 8371 ft | 5 kts | 2° |
| 2026-05-05 06:14 | 4.69791 | -74.13626 | 8372 ft | 9 kts | 349° |
| 2026-05-05 06:15 | 4.69843 | -74.13671 | 8372 ft | 12 kts | 309° |
| 2026-05-05 06:15 | 4.69905 | -74.13753 | 8372 ft | 17 kts | 307° |
| 2026-05-05 06:15 | 4.69977 | -74.13847 | 8372 ft | 16 kts | 307° |
| 2026-05-05 06:15 | 4.70040 | -74.13932 | 8372 ft | 14 kts | 307° |
| 2026-05-05 06:16 | 4.70101 | -74.13978 | 8371 ft | 10 kts | 356° |
| 2026-05-05 06:16 | 4.70173 | -74.13998 | 8371 ft | 13 kts | 319° |
| 2026-05-05 06:16 | 4.70230 | -74.14067 | 8371 ft | 12 kts | 309° |
| 2026-05-05 06:16 | 4.70283 | -74.14137 | 8371 ft | 16 kts | 307° |
| 2026-05-05 06:17 | 4.70370 | -74.14253 | 8372 ft | 22 kts | 307° |
| 2026-05-05 06:17 | 4.70456 | -74.14366 | 8372 ft | 19 kts | 307° |
| 2026-05-05 06:17 | 4.70533 | -74.14468 | 8372 ft | 17 kts | 308° |
| 2026-05-05 06:17 | 4.70622 | -74.14584 | 8372 ft | 25 kts | 307° |
| 2026-05-05 06:18 | 4.70723 | -74.14719 | 8372 ft | 23 kts | 307° |
| 2026-05-05 06:18 | 4.70816 | -74.14842 | 8372 ft | 21 kts | 307° |
| 2026-05-05 06:18 | 4.70900 | -74.14953 | 8372 ft | 19 kts | 307° |
| 2026-05-05 06:18 | 4.70980 | -74.15058 | 8372 ft | 19 kts | 307° |
| 2026-05-05 06:19 | 4.71056 | -74.15158 | 8372 ft | 17 kts | 307° |
| 2026-05-05 06:19 | 4.71132 | -74.15260 | 8372 ft | 19 kts | 307° |
| 2026-05-05 06:19 | 4.71207 | -74.15356 | 8372 ft | 12 kts | 319° |
| 2026-05-05 06:19 | 4.71265 | -74.15352 | 8373 ft | 6 kts | 50° |
| 2026-05-05 06:20 | 4.71273 | -74.15326 | 8372 ft | 0 kts | 72° |
| 2026-05-05 06:22 | 4.71286 | -74.15284 | 8372 ft | 12 kts | 73° |
| 2026-05-05 06:22 | 4.71307 | -74.15173 | 8371 ft | 20 kts | 100° |
| 2026-05-05 06:22 | 4.71260 | -74.15100 | 8371 ft | 0 kts | 127° |
| 2026-05-05 06:23 | 4.71227 | -74.15056 | 8371 ft | 32 kts | 127° |
| 2026-05-05 06:23 | 4.70949 | -74.14688 | 8371 ft | 99 kts | 127° |
| 2026-05-05 06:23 | 4.70417 | -74.13986 | 8371 ft | 156 kts | 127° |
| 2026-05-05 06:23 | 4.69637 | -74.12946 | 8518 ft | 190 kts | 132° |
| 2026-05-05 06:24 | 4.68827 | -74.11905 | 9268 ft | 196 kts | 126° |
| 2026-05-05 06:24 | 4.68001 | -74.10763 | 9900 ft | 198 kts | 127° |
| 2026-05-05 06:24 | 4.67152 | -74.09613 | 10314 ft | 216 kts | 127° |
| 2026-05-05 06:24 | 4.66882 | -74.08178 | 10773 ft | 225 kts | 72° |
| 2026-05-05 06:25 | 4.68085 | -74.07099 | 10877 ft | 261 kts | 10° |
| 2026-05-05 06:25 | 4.69780 | -74.07687 | 11303 ft | 280 kts | 305° |
| 2026-05-05 06:25 | 4.70343 | -74.09539 | 12027 ft | 275 kts | 278° |
| 2026-05-05 06:25 | 4.70691 | -74.11362 | 13092 ft | 265 kts | 276° |
| 2026-05-05 06:26 | 4.70381 | -74.13263 | 13059 ft | 290 kts | 244° |
| 2026-05-05 06:26 | 4.69688 | -74.15256 | 12847 ft | 316 kts | 266° |
| 2026-05-05 06:26 | 4.70092 | -74.17534 | 12830 ft | 354 kts | 295° |
| 2026-05-05 06:26 | 4.71546 | -74.19609 | 12832 ft | 387 kts | 316° |
| 2026-05-05 06:27 | 4.72899 | -74.20894 | 12826 ft | 406 kts | 315° |
| 2026-05-05 06:27 | 4.75602 | -74.26004 | 12698 ft | 425 kts | 282° |
| 2026-05-05 06:27 | 4.75736 | -74.29917 | 12599 ft | 424 kts | 261° |
| 2026-05-05 06:28 | 4.75278 | -74.31860 | 12528 ft | 423 kts | 251° |
| 2026-05-05 06:28 | 4.74218 | -74.34602 | 12427 ft | 422 kts | 245° |
| 2026-05-05 06:28 | 4.73048 | -74.37295 | 12311 ft | 421 kts | 246° |
| 2026-05-05 06:28 | 4.71982 | -74.40024 | 13051 ft | 420 kts | 250° |
| 2026-05-05 06:29 | 4.71189 | -74.42874 | 13679 ft | 429 kts | 257° |
| 2026-05-05 06:29 | 4.70517 | -74.45822 | 14206 ft | 434 kts | 256° |
| 2026-05-05 06:29 | 4.69886 | -74.48789 | 14833 ft | 439 kts | 257° |
| 2026-05-05 06:29 | 4.69184 | -74.51787 | 15441 ft | 443 kts | 254° |
| 2026-05-05 06:30 | 4.68327 | -74.54775 | 16050 ft | 448 kts | 254° |
| 2026-05-05 06:30 | 4.67911 | -74.57885 | 16649 ft | 454 kts | 269° |
| 2026-05-05 06:30 | 4.68232 | -74.61038 | 17253 ft | 458 kts | 282° |
| 2026-05-05 06:30 | 4.69262 | -74.64075 | 17822 ft | 462 kts | 296° |
| 2026-05-05 06:31 | 4.70916 | -74.66787 | 18367 ft | 463 kts | 309° |
| 2026-05-05 06:31 | 4.73149 | -74.69115 | 18880 ft | 464 kts | 322° |
| 2026-05-05 06:31 | 4.75834 | -74.70906 | 19378 ft | 464 kts | 334° |
| 2026-05-05 06:31 | 4.78843 | -74.72070 | 19888 ft | 463 kts | 347° |
| 2026-05-05 06:32 | 4.82005 | -74.72585 | 20413 ft | 461 kts | 358° |
| 2026-05-05 06:32 | 4.85220 | -74.72709 | 20854 ft | 464 kts | 358° |
| 2026-05-05 06:32 | 4.88435 | -74.73178 | 21330 ft | 468 kts | 349° |
| 2026-05-05 06:32 | 4.91565 | -74.74095 | 21797 ft | 473 kts | 339° |
| 2026-05-05 06:33 | 4.94477 | -74.75650 | 22224 ft | 478 kts | 327° |
| 2026-05-05 06:33 | 4.97037 | -74.77817 | 22670 ft | 483 kts | 315° |
| 2026-05-05 06:33 | 4.99106 | -74.80492 | 23107 ft | 489 kts | 303° |
| 2026-05-05 06:33 | 5.00605 | -74.83576 | 23525 ft | 494 kts | 292° |
| 2026-05-05 06:34 | 5.01645 | -74.86867 | 23852 ft | 498 kts | 287° |
| 2026-05-05 06:34 | 5.02546 | -74.90232 | 24185 ft | 500 kts | 286° |
| 2026-05-05 06:34 | 5.03498 | -74.93602 | 24484 ft | 503 kts | 288° |
| 2026-05-05 06:34 | 5.04646 | -74.96874 | 24758 ft | 505 kts | 294° |
| 2026-05-05 06:35 | 5.06177 | -75.00059 | 25182 ft | 505 kts | 299° |
| 2026-05-05 06:35 | 5.07876 | -75.03154 | 25458 ft | 508 kts | 301° |
| 2026-05-05 06:35 | 5.09598 | -75.06268 | 25726 ft | 512 kts | 298° |
| 2026-05-05 06:35 | 5.11136 | -75.09502 | 26133 ft | 513 kts | 295° |
| 2026-05-05 06:36 | 5.12603 | -75.12782 | 26402 ft | 516 kts | 296° |
| 2026-05-05 06:36 | 5.14180 | -75.16027 | 26718 ft | 518 kts | 298° |
| 2026-05-05 06:36 | 5.16008 | -75.19145 | 26981 ft | 519 kts | 307° |
| 2026-05-05 06:36 | 5.18327 | -75.21921 | 27293 ft | 519 kts | 313° |
| 2026-05-05 06:37 | 5.20714 | -75.24591 | 27563 ft | 522 kts | 313° |
| 2026-05-05 06:37 | 5.23148 | -75.27308 | 27829 ft | 524 kts | 313° |
| 2026-05-05 06:37 | 5.25565 | -75.30054 | 28070 ft | 526 kts | 312° |
| 2026-05-05 06:37 | 5.27991 | -75.32820 | 28317 ft | 529 kts | 312° |
| 2026-05-05 06:38 | 5.30440 | -75.35586 | 28557 ft | 531 kts | 313° |
| 2026-05-05 06:38 | 5.32905 | -75.38361 | 28760 ft | 533 kts | 313° |
| 2026-05-05 06:38 | 5.35367 | -75.41146 | 28979 ft | 535 kts | 312° |
| 2026-05-05 06:38 | 5.37830 | -75.43942 | 29326 ft | 534 kts | 312° |
| 2026-05-05 06:39 | 5.40294 | -75.46732 | 29662 ft | 534 kts | 312° |
| 2026-05-05 06:39 | 5.42764 | -75.49522 | 30060 ft | 534 kts | 312° |
| 2026-05-05 06:39 | 5.45225 | -75.52304 | 30423 ft | 533 kts | 312° |
| 2026-05-05 06:39 | 5.47680 | -75.55088 | 30790 ft | 531 kts | 312° |
| 2026-05-05 06:40 | 5.50054 | -75.57777 | 31179 ft | 530 kts | 312° |
| 2026-05-05 06:40 | 5.52502 | -75.60549 | 31568 ft | 529 kts | 312° |
| 2026-05-05 06:40 | 5.54942 | -75.63311 | 31958 ft | 528 kts | 312° |
| 2026-05-05 06:40 | 5.57373 | -75.66065 | 32313 ft | 526 kts | 312° |
| 2026-05-05 06:41 | 5.59801 | -75.68816 | 32633 ft | 526 kts | 312° |
| 2026-05-05 06:41 | 5.62230 | -75.71568 | 32980 ft | 525 kts | 312° |
| 2026-05-05 06:41 | 5.64646 | -75.74305 | 33421 ft | 523 kts | 312° |
| 2026-05-05 06:41 | 5.67056 | -75.77036 | 33766 ft | 523 kts | 312° |
| 2026-05-05 06:42 | 5.69465 | -75.79774 | 34169 ft | 519 kts | 310° |
| 2026-05-05 06:42 | 5.71558 | -75.82701 | 34661 ft | 515 kts | 299° |
| 2026-05-05 06:42 | 5.73164 | -75.85916 | 34897 ft | 516 kts | 296° |
| 2026-05-05 06:42 | 5.74704 | -75.89170 | 35227 ft | 515 kts | 295° |
| 2026-05-05 06:43 | 5.76227 | -75.92422 | 35523 ft | 515 kts | 295° |
| 2026-05-05 06:43 | 5.77759 | -75.95662 | 35836 ft | 514 kts | 296° |
| 2026-05-05 06:43 | 5.79304 | -75.98906 | 35999 ft | 517 kts | 296° |
| 2026-05-05 06:44 | 5.82400 | -76.05457 | 35995 ft | 516 kts | 295° |
| 2026-05-05 06:44 | 5.84943 | -76.10834 | 35989 ft | 513 kts | 296° |